Time;durP1;ratioP1;P1;durP2;ratioP2;P2;SDS_P1;SDS_P2;PMS_P1;PMS_P2;Temp;Humidity;BMP_temperature;BMP_pressure;BME280_temperature;BME280_humidity;BME280_pressure;Samples;Min_cycle;Max_cycle;Signal;HPM_P1;HPM_P2
2021/10/24 00:01:03;;;;;;;10.73;6.73;;;;;;;0.88;100.00;102234.25;5042164;28;20216;-72
2021/10/24 00:03:29;;;;;;;12.67;6.67;;;;;;;0.89;100.00;102234.31;5035163;28;20738;-74
2021/10/24 00:05:56;;;;;;;13.93;6.77;;;;;;;0.67;100.00;102237.72;5035279;28;20234;-73
2021/10/24 00:08:22;;;;;;;10.07;6.30;;;;;;;0.69;100.00;102240.38;5037787;28;20198;-73
2021/10/24 00:10:49;;;;;;;9.80;6.73;;;;;;;0.69;100.00;102236.09;5035873;28;20232;-74
2021/10/24 00:13:16;;;;;;;12.27;6.47;;;;;;;0.75;100.00;102241.47;5033180;28;20234;-74
2021/10/24 00:15:42;;;;;;;8.63;6.07;;;;;;;0.82;100.00;102245.16;5032805;28;20234;-73
2021/10/24 00:18:10;;;;;;;13.17;6.47;;;;;;;0.69;100.00;102253.19;5039172;28;20203;-73
2021/10/24 00:20:37;;;;;;;10.20;5.93;;;;;;;0.76;100.00;102255.19;5040280;28;20221;-73
2021/10/24 00:23:03;;;;;;;12.23;6.23;;;;;;;0.74;100.00;102255.13;5037570;28;20286;-73
2021/10/24 00:25:30;;;;;;;13.13;6.07;;;;;;;0.68;100.00;102256.56;5031473;28;20198;-74
2021/10/24 00:27:56;;;;;;;12.33;6.27;;;;;;;0.74;100.00;102249.13;5031515;28;20211;-73
2021/10/24 00:30:23;;;;;;;10.10;5.40;;;;;;;0.79;100.00;102254.44;5033381;28;20573;-72
2021/10/24 00:32:49;;;;;;;9.80;6.20;;;;;;;0.56;100.00;102255.28;5030633;28;20214;-73
2021/10/24 00:35:17;;;;;;;12.93;6.10;;;;;;;0.57;100.00;102266.41;5030811;28;20224;-74
2021/10/24 00:37:43;;;;;;;11.37;6.00;;;;;;;0.52;100.00;102268.78;5034403;28;20203;-74
2021/10/24 00:40:10;;;;;;;8.47;5.80;;;;;;;0.71;100.00;102262.69;5031904;28;20199;-74
2021/10/24 00:42:45;;;;;;;10.87;6.63;;;;;;;0.46;100.00;102272.75;5029342;28;20407;-73
2021/10/24 00:45:11;;;;;;;9.17;6.10;;;;;;;0.55;100.00;102263.78;5033515;28;20238;-70
2021/10/24 00:47:38;;;;;;;10.27;6.40;;;;;;;0.54;100.00;102267.13;5031661;28;20752;-74
2021/10/24 00:50:05;;;;;;;9.13;6.23;;;;;;;0.49;100.00;102268.66;5032507;28;20205;-74
2021/10/24 00:52:33;;;;;;;9.53;6.53;;;;;;;0.53;100.00;102267.09;5032762;28;20227;-74
2021/10/24 00:55:00;;;;;;;11.47;6.30;;;;;;;0.37;100.00;102266.47;5033508;28;20660;-74
2021/10/24 00:57:26;;;;;;;9.30;6.20;;;;;;;0.50;100.00;102260.13;5032016;28;20200;-73
2021/10/24 00:59:52;;;;;;;11.33;6.43;;;;;;;0.44;100.00;102257.34;5034174;28;20239;-74
2021/10/24 01:02:20;;;;;;;13.37;5.73;;;;;;;0.43;100.00;102258.13;5030929;28;20224;-74
2021/10/24 01:04:46;;;;;;;9.47;5.87;;;;;;;0.46;100.00;102260.84;5038600;28;20595;-71
2021/10/24 01:07:17;;;;;;;8.50;6.13;;;;;;;0.43;100.00;102258.13;5040407;28;20211;-74
2021/10/24 01:09:45;;;;;;;10.10;6.47;;;;;;;0.35;100.00;102255.25;5037060;28;20322;-73
2021/10/24 01:12:12;;;;;;;9.63;6.43;;;;;;;0.46;100.00;102262.50;5030620;28;20322;-73
2021/10/24 01:14:38;;;;;;;9.87;6.90;;;;;;;0.12;100.00;102258.53;5031356;28;20224;-73
2021/10/24 01:17:05;;;;;;;10.40;7.00;;;;;;;0.35;100.00;102251.78;5034496;28;20619;-73
2021/10/24 01:19:31;;;;;;;14.17;6.63;;;;;;;0.45;100.00;102255.63;5038091;28;20294;-72
2021/10/24 01:22:00;;;;;;;17.23;7.13;;;;;;;0.19;100.00;102255.41;5037924;28;20565;-73
2021/10/24 01:24:26;;;;;;;13.27;6.70;;;;;;;0.20;100.00;102244.34;5035969;28;20425;-74
2021/10/24 01:26:54;;;;;;;13.23;6.80;;;;;;;0.30;100.00;102250.72;5033156;28;20644;-74
2021/10/24 01:29:21;;;;;;;10.63;6.63;;;;;;;0.23;100.00;102249.63;5036413;28;20814;-74
2021/10/24 01:31:47;;;;;;;9.67;6.60;;;;;;;0.18;100.00;102251.09;5034820;28;20231;-74
2021/10/24 01:34:16;;;;;;;13.90;7.53;;;;;;;0.02;100.00;102246.09;5035401;28;20909;-74
2021/10/24 01:36:42;;;;;;;14.90;6.50;;;;;;;0.10;100.00;102250.75;5034951;28;20692;-73
2021/10/24 01:39:10;;;;;;;12.07;6.53;;;;;;;0.11;100.00;102255.09;5031683;28;20208;-74
2021/10/24 01:41:38;;;;;;;15.33;5.93;;;;;;;0.41;100.00;102248.63;5034725;28;20235;-74
2021/10/24 01:44:06;;;;;;;14.07;6.30;;;;;;;0.28;100.00;102245.56;5035558;28;20295;-73
2021/10/24 01:46:34;;;;;;;12.27;6.10;;;;;;;0.32;100.00;102242.28;5037850;28;20196;-74
2021/10/24 01:49:01;;;;;;;8.13;5.57;;;;;;;0.04;100.00;102237.69;5035228;28;20211;-74
2021/10/24 01:51:28;;;;;;;12.97;6.20;;;;;;;0.25;100.00;102242.84;5034104;28;20238;-74
2021/10/24 01:53:54;;;;;;;9.27;5.60;;;;;;;0.07;100.00;102235.25;5033537;28;20200;-74
2021/10/24 01:56:24;;;;;;;12.10;6.60;;;;;;;0.13;100.00;102239.78;5036099;28;20223;-74
2021/10/24 01:58:50;;;;;;;8.73;6.03;;;;;;;-0.06;100.00;102232.97;5034251;28;20235;-73
2021/10/24 02:01:18;;;;;;;10.40;5.90;;;;;;;0.05;100.00;102236.00;5035769;28;20315;-74
2021/10/24 02:04:04;;;;;;;12.17;5.83;;;;;;;0.02;100.00;102233.28;5029453;28;20211;-74
2021/10/24 02:07:03;;;;;;;8.20;5.33;;;;;;;0.21;100.00;102234.94;5039275;28;20207;-74
2021/10/24 02:09:30;;;;;;;10.83;5.97;;;;;;;0.28;100.00;102226.69;5032466;28;20204;-74
2021/10/24 02:11:58;;;;;;;10.20;6.80;;;;;;;0.02;100.00;102229.06;5029582;28;20685;-74
2021/10/24 02:14:25;;;;;;;7.53;5.67;;;;;;;-0.14;100.00;102229.19;5033530;28;20231;-73
2021/10/24 02:16:52;;;;;;;9.60;5.40;;;;;;;-0.21;100.00;102233.19;5046966;28;20294;-74
2021/10/24 02:19:18;;;;;;;12.20;6.07;;;;;;;-0.15;100.00;102232.59;5043243;28;20296;-74
2021/10/24 02:21:45;;;;;;;11.37;5.53;;;;;;;-0.06;100.00;102236.41;5038746;28;20293;-74
2021/10/24 02:24:11;;;;;;;9.47;5.43;;;;;;;-0.28;100.00;102238.84;5039822;28;20633;-74
2021/10/24 02:26:38;;;;;;;13.97;6.10;;;;;;;-0.32;100.00;102240.38;5040500;28;20771;-73
2021/10/24 02:29:05;;;;;;;11.13;6.50;;;;;;;-0.35;100.00;102245.41;5030703;28;20661;-74
2021/10/24 02:31:32;;;;;;;11.03;6.77;;;;;;;-0.33;100.00;102242.91;5036354;28;20616;-74
2021/10/24 02:34:17;;;;;;;13.93;6.40;;;;;;;-0.16;100.00;102236.81;5034372;28;20195;-74
2021/10/24 02:36:55;;;;;;;12.00;6.03;;;;;;;-0.20;100.00;102237.50;5039195;28;20207;-74
2021/10/24 02:39:23;;;;;;;12.43;5.90;;;;;;;-0.24;100.00;102236.47;5038984;28;20212;-74
2021/10/24 02:41:50;;;;;;;11.80;6.17;;;;;;;-0.16;100.00;102236.81;5036413;28;20236;-73
2021/10/24 02:44:19;;;;;;;10.23;5.87;;;;;;;-0.11;100.00;102231.88;5030556;28;20261;-73
2021/10/24 02:46:51;;;;;;;11.57;5.90;;;;;;;-0.16;100.00;102236.81;5036485;28;20616;-75
2021/10/24 02:49:19;;;;;;;9.20;5.97;;;;;;;-0.35;100.00;102240.28;5032690;28;20227;-73
2021/10/24 02:51:54;;;;;;;8.37;6.00;;;;;;;-0.25;100.00;102244.09;5032433;28;20869;-72
2021/10/24 02:54:21;;;;;;;10.33;6.50;;;;;;;-0.49;100.00;102242.22;5044215;28;20196;-72
2021/10/24 02:56:48;;;;;;;10.93;6.23;;;;;;;-0.40;100.00;102247.75;5037735;28;20239;-73
2021/10/24 02:59:21;;;;;;;12.90;5.70;;;;;;;-0.15;100.00;102248.84;5031367;28;20199;-74
2021/10/24 03:01:48;;;;;;;8.37;5.60;;;;;;;-0.12;100.00;102248.97;5033127;28;20231;-74
2021/10/24 03:04:15;;;;;;;10.40;6.03;;;;;;;-0.09;100.00;102237.97;5037620;28;20211;-74
2021/10/24 03:06:46;;;;;;;11.13;6.23;;;;;;;-0.42;100.00;102244.25;5035153;28;20207;-74
2021/10/24 03:09:12;;;;;;;9.73;5.57;;;;;;;-0.21;100.00;102241.75;5034703;28;20203;-74
2021/10/24 03:11:39;;;;;;;9.57;5.53;;;;;;;-0.05;100.00;102245.00;5031682;28;20286;-73
2021/10/24 03:14:06;;;;;;;12.10;6.23;;;;;;;-0.11;100.00;102249.84;5041008;28;20665;-74
2021/10/24 03:16:34;;;;;;;8.50;5.20;;;;;;;-0.06;100.00;102246.66;5034288;28;20752;-73
2021/10/24 03:19:01;;;;;;;8.33;5.17;;;;;;;-0.17;100.00;102244.47;5028592;28;20206;-74
2021/10/24 03:21:29;;;;;;;10.40;5.63;;;;;;;-0.17;100.00;102247.91;5044421;28;20220;-74
2021/10/24 03:23:57;;;;;;;9.37;5.77;;;;;;;-0.22;100.00;102246.81;5037212;28;20302;-74
2021/10/24 03:26:23;;;;;;;8.87;5.13;;;;;;;-0.22;100.00;102245.13;5044692;28;20288;-71
2021/10/24 03:28:50;;;;;;;9.07;5.47;;;;;;;-0.10;100.00;102242.22;5036360;28;20211;-74
2021/10/24 03:31:18;;;;;;;11.20;5.57;;;;;;;-0.04;100.00;102245.03;5041094;28;20323;-74
2021/10/24 03:33:47;;;;;;;9.53;5.23;;;;;;;-0.01;100.00;102241.75;5036741;28;20195;-74
2021/10/24 03:36:14;;;;;;;8.57;4.77;;;;;;;-0.13;100.00;102243.78;5043162;28;20566;-73
2021/10/24 03:38:40;;;;;;;8.20;4.57;;;;;;;-0.09;100.00;102251.69;5038894;28;20219;-72
2021/10/24 03:41:07;;;;;;;11.33;5.90;;;;;;;-0.31;100.00;102247.28;5039187;28;20252;-74
2021/10/24 03:43:34;;;;;;;11.07;5.70;;;;;;;-0.27;100.00;102244.03;5038233;28;20192;-73
2021/10/24 03:46:01;;;;;;;11.37;5.13;;;;;;;-0.22;100.00;102246.81;5044245;28;20212;-74
2021/10/24 03:48:27;;;;;;;9.10;5.40;;;;;;;-0.28;100.00;102261.91;5034793;28;20282;-73
2021/10/24 03:50:56;;;;;;;10.57;5.67;;;;;;;-0.20;100.00;102261.44;5027852;28;20231;-73
2021/10/24 03:53:25;;;;;;;12.60;5.50;;;;;;;-0.12;100.00;102254.09;5035780;28;20672;-73
2021/10/24 03:55:52;;;;;;;10.47;5.63;;;;;;;-0.22;100.00;102254.50;5039241;28;20229;-73
2021/10/24 03:58:18;;;;;;;9.90;5.60;;;;;;;-0.24;100.00;102254.44;5031954;28;20315;-73
2021/10/24 04:00:45;;;;;;;9.07;5.00;;;;;;;-0.16;100.00;102251.31;5034278;28;20212;-73
2021/10/24 04:03:34;;;;;;;11.30;4.97;;;;;;;-0.17;100.00;102254.72;5033643;28;20574;-73
2021/10/24 04:06:13;;;;;;;10.23;6.03;;;;;;;-0.25;100.00;102257.78;5028014;28;20548;-73
2021/10/24 04:08:42;;;;;;;12.20;5.47;;;;;;;-0.57;100.00;102262.34;5029544;28;20203;-74
2021/10/24 04:11:09;;;;;;;10.83;5.97;;;;;;;-0.67;100.00;102270.44;5034395;28;20238;-72
2021/10/24 04:13:35;;;;;;;10.50;5.43;;;;;;;-0.50;100.00;102272.91;5040897;28;20312;-73
2021/10/24 04:16:05;;;;;;;9.67;5.53;;;;;;;-0.40;100.00;102269.94;5036536;28;20689;-74
2021/10/24 04:18:52;;;;;;;9.47;5.40;;;;;;;-0.36;100.00;102276.09;5034189;28;20703;-73
2021/10/24 04:21:20;;;;;;;7.90;5.70;;;;;;;-0.41;100.00;102274.16;5039847;28;20224;-73
2021/10/24 04:23:50;;;;;;;12.57;5.40;;;;;;;-0.45;100.00;102267.16;5031856;28;20462;-73
2021/10/24 04:26:16;;;;;;;11.57;6.10;;;;;;;-0.42;100.00;102262.19;5034666;28;20193;-73
2021/10/24 04:28:43;;;;;;;10.23;5.47;;;;;;;-0.40;100.00;102268.25;5036526;28;20215;-73
2021/10/24 04:31:10;;;;;;;11.13;5.23;;;;;;;-0.36;100.00;102266.69;5038591;28;20235;-74
2021/10/24 04:33:36;;;;;;;13.27;6.10;;;;;;;-0.55;100.00;102269.25;5032292;28;20204;-74
2021/10/24 04:36:04;;;;;;;7.80;5.30;;;;;;;-0.51;100.00;102264.34;5040170;28;20273;-73
2021/10/24 04:38:32;;;;;;;10.63;5.87;;;;;;;-0.43;100.00;102267.25;5031649;28;20200;-73
2021/10/24 04:40:59;;;;;;;12.87;6.03;;;;;;;-0.28;100.00;102264.47;5038770;28;20274;-73
2021/10/24 04:43:26;;;;;;;10.70;5.93;;;;;;;-0.15;100.00;102261.66;5032575;28;20211;-74
2021/10/24 04:45:52;;;;;;;10.07;5.77;;;;;;;-0.46;100.00;102260.31;5029311;28;20199;-74
2021/10/24 04:48:22;;;;;;;7.93;5.47;;;;;;;-0.46;100.00;102268.00;5037975;28;20265;-73
2021/10/24 04:50:49;;;;;;;8.23;5.00;;;;;;;-0.25;100.00;102267.19;5043875;28;20631;-73
2021/10/24 04:53:17;;;;;;;12.53;6.20;;;;;;;-0.45;100.00;102264.59;5037271;28;20222;-73
2021/10/24 04:55:48;;;;;;;10.33;5.87;;;;;;;-0.24;100.00;102259.56;5035265;28;20303;-74
2021/10/24 04:58:15;;;;;;;10.13;5.83;;;;;;;0.01;100.00;102267.47;5037982;28;20495;-73
2021/10/24 05:00:42;;;;;;;12.07;5.90;;;;;;;-0.12;100.00;102266.03;5028815;28;20227;-74
2021/10/24 05:03:10;;;;;;;10.43;5.67;;;;;;;-0.23;100.00;102269.03;5034815;28;20301;-74
2021/10/24 05:05:40;;;;;;;9.80;5.03;;;;;;;-0.34;100.00;102269.34;5033946;28;20206;-73
2021/10/24 05:08:08;;;;;;;10.37;6.00;;;;;;;-0.17;100.00;102264.97;5035266;28;20208;-74
2021/10/24 05:10:36;;;;;;;7.93;5.13;;;;;;;-0.25;100.00;102273.16;5028302;28;20219;-74
2021/10/24 05:13:04;;;;;;;10.33;5.60;;;;;;;-0.33;100.00;102277.09;5029758;28;20322;-73
2021/10/24 05:15:30;;;;;;;9.53;5.63;;;;;;;-0.30;100.00;102277.25;5039398;28;20227;-74
2021/10/24 05:17:57;;;;;;;9.43;5.20;;;;;;;-0.42;100.00;102275.00;5033259;28;20300;-72
2021/10/24 05:20:25;;;;;;;9.83;5.73;;;;;;;-0.40;100.00;102272.50;5028877;28;20220;-73
2021/10/24 05:22:54;;;;;;;10.87;5.47;;;;;;;-0.68;100.00;102272.94;5034348;28;20516;-71
2021/10/24 05:25:21;;;;;;;10.53;5.77;;;;;;;-0.51;100.00;102268.56;5035283;28;20226;-73
2021/10/24 05:27:54;;;;;;;9.43;5.57;;;;;;;-0.40;100.00;102273.38;5033387;28;20214;-74
2021/10/24 05:30:22;;;;;;;11.20;5.30;;;;;;;-0.55;100.00;102271.81;5034364;28;20207;-73
2021/10/24 05:32:49;;;;;;;12.30;6.43;;;;;;;-0.41;100.00;102268.19;5031215;28;20655;-74
2021/10/24 05:35:18;;;;;;;8.90;6.07;;;;;;;-0.44;100.00;102270.59;5034270;28;20195;-72
2021/10/24 05:37:45;;;;;;;10.07;5.63;;;;;;;-0.54;100.00;102265.88;5045546;28;20206;-72
2021/10/24 05:40:13;;;;;;;11.57;5.87;;;;;;;-0.52;100.00;102277.94;5042684;28;20466;-74
2021/10/24 05:42:53;;;;;;;9.73;5.47;;;;;;;-0.75;100.00;102287.13;5041411;28;20209;-73
2021/10/24 05:45:21;;;;;;;9.07;5.50;;;;;;;-0.87;100.00;102281.44;5030693;28;20208;-74
2021/10/24 05:47:47;;;;;;;11.60;5.67;;;;;;;-0.63;100.00;102282.59;5040674;28;20556;-74
2021/10/24 05:50:26;;;;;;;10.13;6.00;;;;;;;-0.44;100.00;102281.75;5038602;28;20218;-74
2021/10/24 05:52:52;;;;;;;12.07;6.00;;;;;;;-0.45;100.00;102282.53;5039589;28;20202;-74
2021/10/24 05:55:26;;;;;;;10.70;6.47;;;;;;;-0.67;100.00;102287.47;5039797;28;20544;-74
2021/10/24 05:58:20;;;;;;;11.27;6.27;;;;;;;-0.47;100.00;102283.28;5042261;28;20489;-73
2021/10/24 06:01:27;;;;;;;13.23;6.17;;;;;;;-0.48;100.00;102289.22;5044324;28;20226;-73
2021/10/24 06:04:27;;;;;;;13.83;6.47;;;;;;;-0.53;100.00;102296.69;5036596;28;20196;-73
2021/10/24 06:07:26;;;;;;;10.37;6.00;;;;;;;-0.55;100.00;102293.19;5042005;28;20207;-73
2021/10/24 06:10:21;;;;;;;16.67;6.57;;;;;;;-0.58;100.00;102291.38;5036664;28;20710;-74
2021/10/24 06:13:08;;;;;;;15.03;6.93;;;;;;;-0.34;100.00;102292.41;5034958;28;20591;-74
2021/10/24 06:16:04;;;;;;;12.20;6.60;;;;;;;-0.41;100.00;102296.38;5039541;28;20616;-73
2021/10/24 06:18:43;;;;;;;12.90;6.67;;;;;;;-0.50;100.00;102301.09;5038310;28;20489;-74
2021/10/24 06:21:25;;;;;;;17.07;7.93;;;;;;;-0.47;100.00;102301.22;5045484;28;20227;-73
2021/10/24 06:23:59;;;;;;;19.30;8.90;;;;;;;-0.36;100.00;102301.72;5038847;28;20222;-74
2021/10/24 06:26:38;;;;;;;21.93;10.20;;;;;;;-0.35;100.00;102299.22;5046257;28;20219;-73
2021/10/24 06:29:46;;;;;;;;;;;;;;;;;;;;;
2021/10/24 06:32:20;;;;;;;15.40;9.00;;;;;;;-0.17;100.00;102303.44;5036894;28;20231;-73
2021/10/24 06:35:07;;;;;;;20.83;9.00;;;;;;;-0.32;100.00;102304.47;5040863;28;20211;-73
2021/10/24 06:37:57;;;;;;;15.33;8.20;;;;;;;-0.26;100.00;102309.88;5039346;28;20209;-73
2021/10/24 06:40:24;;;;;;;16.77;8.87;;;;;;;-0.15;100.00;102306.94;5037986;28;20798;-74
2021/10/24 06:42:56;;;;;;;19.97;8.83;;;;;;;-0.16;100.00;102316.28;5038996;28;20196;-74
2021/10/24 06:45:49;;;;;;;13.07;8.37;;;;;;;0.02;100.00;102310.22;5037846;28;20207;-73
2021/10/24 06:48:41;;;;;;;15.23;8.00;;;;;;;0.23;100.00;102315.41;5035411;28;20208;-73
2021/10/24 06:51:18;;;;;;;17.57;8.43;;;;;;;0.19;100.00;102311.84;5037881;28;20602;-72
2021/10/24 06:54:03;;;;;;;16.10;8.30;;;;;;;0.30;100.00;102318.34;5037989;28;20676;-73
2021/10/24 06:56:48;;;;;;;16.07;8.77;;;;;;;0.44;100.00;102311.22;5047002;28;20225;-73
2021/10/24 06:59:44;;;;;;;23.73;9.47;;;;;;;0.55;100.00;102307.41;5037463;28;20212;-73
2021/10/24 07:02:25;;;;;;;26.07;12.87;;;;;;;0.63;100.00;102309.41;5037980;28;20230;-73
2021/10/24 07:05:19;;;;;;;19.00;9.93;;;;;;;0.66;100.00;102304.41;5051122;28;20204;-73
2021/10/24 07:07:49;;;;;;;27.20;14.10;;;;;;;0.74;100.00;102306.50;5036242;28;20207;-73
2021/10/24 07:10:18;;;;;;;22.93;12.50;;;;;;;0.86;100.00;102303.56;5033290;28;20633;-73
2021/10/24 07:12:50;;;;;;;16.43;10.03;;;;;;;0.81;100.00;102304.16;5040890;28;20211;-73
2021/10/24 07:15:18;;;;;;;18.37;8.77;;;;;;;0.88;100.00;102307.06;5033662;28;20196;-73
2021/10/24 07:17:44;;;;;;;22.80;9.97;;;;;;;0.94;100.00;102306.41;5040569;28;20781;-73
2021/10/24 07:20:12;;;;;;;24.47;11.27;;;;;;;1.09;100.00;102306.13;5034063;28;20208;-73
2021/10/24 07:22:50;;;;;;;20.90;10.27;;;;;;;1.17;100.00;102302.19;5029462;28;20227;-73
2021/10/24 07:25:22;;;;;;;25.30;10.67;;;;;;;1.19;100.00;102305.69;5038387;28;20203;-73
2021/10/24 07:27:50;;;;;;;19.43;10.97;;;;;;;1.33;100.00;102309.66;5044605;28;20260;-73
2021/10/24 07:30:19;;;;;;;25.10;11.60;;;;;;;1.41;100.00;102309.13;5037222;28;20200;-73
2021/10/24 07:32:53;;;;;;;25.43;11.70;;;;;;;1.54;100.00;102313.03;5033638;28;20600;-72
2021/10/24 07:35:39;;;;;;;22.83;10.97;;;;;;;1.62;100.00;102304.78;5037520;28;20342;-73
2021/10/24 07:38:13;;;;;;;21.93;10.37;;;;;;;1.76;100.00;102310.44;5036201;28;20254;-74
2021/10/24 07:40:41;;;;;;;19.87;10.80;;;;;;;1.89;100.00;102316.91;5033061;28;20231;-73
2021/10/24 07:43:13;;;;;;;20.00;11.53;;;;;;;2.01;100.00;102317.34;5034388;28;20196;-73
2021/10/24 07:45:43;;;;;;;33.80;12.40;;;;;;;2.13;100.00;102311.78;5030473;28;20211;-73
2021/10/24 07:48:10;;;;;;;25.97;11.27;;;;;;;2.27;100.00;102318.28;5031443;28;20201;-73
2021/10/24 07:50:37;;;;;;;31.47;12.70;;;;;;;2.40;100.00;102318.69;5032753;28;20221;-73
2021/10/24 07:53:06;;;;;;;28.27;12.50;;;;;;;2.45;100.00;102315.47;5032717;28;20199;-74
2021/10/24 07:55:38;;;;;;;25.73;11.37;;;;;;;2.54;100.00;102322.63;5038725;28;20690;-73
2021/10/24 07:58:14;;;;;;;75.93;32.67;;;;;;;2.71;100.00;102325.78;5049805;28;20230;-74
2021/10/24 08:00:40;;;;;;;40.00;18.33;;;;;;;2.79;100.00;102319.16;5034836;28;20233;-74
2021/10/24 08:03:07;;;;;;;27.13;12.77;;;;;;;2.94;100.00;102318.78;5032136;28;20217;-73
2021/10/24 08:05:36;;;;;;;31.80;17.60;;;;;;;3.08;100.00;102313.19;5035801;28;20725;-74
2021/10/24 08:08:03;;;;;;;25.77;14.13;;;;;;;3.17;100.00;102319.53;5036467;28;20214;-74
2021/10/24 08:10:38;;;;;;;36.60;18.73;;;;;;;3.33;100.00;102310.56;5040636;28;20877;-73
2021/10/24 08:13:05;;;;;;;56.67;33.03;;;;;;;3.50;100.00;102311.09;5035532;28;20211;-74
2021/10/24 08:15:32;;;;;;;100.47;62.17;;;;;;;3.59;100.00;102311.34;5039670;28;20211;-74
2021/10/24 08:17:58;;;;;;;186.23;103.40;;;;;;;3.71;100.00;102308.25;5052013;28;20230;-73
2021/10/24 08:20:46;;;;;;;155.83;100.67;;;;;;;3.88;100.00;102311.31;5035864;28;20230;-74
2021/10/24 08:23:14;;;;;;;50.37;30.97;;;;;;;4.06;100.00;102310.06;5032354;28;20237;-74
2021/10/24 08:25:42;;;;;;;42.90;24.03;;;;;;;4.20;100.00;102300.13;5041164;28;20230;-73
2021/10/24 08:28:10;;;;;;;30.00;16.90;;;;;;;4.34;100.00;102297.09;5034603;28;20224;-74
2021/10/24 08:30:59;;;;;;;34.83;17.63;;;;;;;4.54;100.00;102295.00;5033142;28;20219;-73
2021/10/24 08:33:47;;;;;;;35.60;14.47;;;;;;;4.67;100.00;102293.59;5042979;28;20759;-74
2021/10/24 08:36:13;;;;;;;34.20;13.17;;;;;;;4.78;100.00;102290.41;5036872;28;20211;-74
2021/10/24 08:38:46;;;;;;;32.20;16.50;;;;;;;4.88;100.00;102290.66;5036693;28;20755;-74
2021/10/24 08:41:39;;;;;;;32.70;13.43;;;;;;;5.01;100.00;102294.41;5032609;28;20220;-74
2021/10/24 08:44:27;;;;;;;25.30;12.20;;;;;;;5.13;100.00;102286.06;5009495;28;20308;-74
2021/10/24 08:47:02;;;;;;;31.47;13.00;;;;;;;5.25;100.00;102285.47;5030940;28;20699;-74
2021/10/24 08:49:44;;;;;;;40.13;14.63;;;;;;;5.32;100.00;102283.06;5038714;28;20620;-74
2021/10/24 08:52:26;;;;;;;31.63;14.90;;;;;;;5.49;100.00;102288.59;5041037;28;20310;-74
2021/10/24 08:55:01;;;;;;;37.43;15.60;;;;;;;5.59;100.00;102292.25;5039588;28;20266;-74
2021/10/24 09:00:27;;;;;;;37.63;14.60;;;;;;;5.77;100.00;102283.13;5037649;28;20203;-74
2021/10/24 09:03:01;;;;;;;39.10;16.37;;;;;;;5.81;100.00;102284.94;5035949;28;20238;-74
2021/10/24 09:05:41;;;;;;;31.63;13.23;;;;;;;5.84;100.00;102282.41;5043987;28;20264;-74
2021/10/24 09:08:21;;;;;;;27.27;12.97;;;;;;;5.92;100.00;102279.97;5040639;28;20199;-73
2021/10/24 09:10:59;;;;;;;33.93;13.53;;;;;;;5.96;100.00;102279.22;5039327;28;20222;-74
2021/10/24 09:13:47;;;;;;;25.00;11.30;;;;;;;5.98;100.00;102282.69;5036070;28;20250;-73
2021/10/24 09:16:41;;;;;;;25.03;10.50;;;;;;;6.12;100.00;102276.09;5046730;28;20230;-73
2021/10/24 09:19:34;;;;;;;34.80;12.80;;;;;;;6.23;100.00;102281.47;5032374;28;20209;-73
2021/10/24 09:22:27;;;;;;;28.53;12.17;;;;;;;6.24;100.00;102289.28;5034577;28;20561;-74
2021/10/24 09:25:12;;;;;;;24.00;10.93;;;;;;;6.35;100.00;102279.09;5039919;28;20258;-75
2021/10/24 09:27:51;;;;;;;24.87;11.80;;;;;;;6.44;100.00;102281.84;5033023;28;20192;-73
2021/10/24 09:30:21;;;;;;;23.80;9.87;;;;;;;6.55;100.00;102278.56;5041366;28;20494;-74
2021/10/24 09:32:55;;;;;;;25.73;10.23;;;;;;;6.59;100.00;102280.34;5030157;28;20235;-75
2021/10/24 09:35:24;;;;;;;18.90;9.73;;;;;;;6.62;100.00;102283.00;5038264;28;20201;-74
2021/10/24 09:38:21;;;;;;;19.27;7.80;;;;;;;6.74;100.00;102284.94;5042362;28;20595;-74
2021/10/24 09:40:58;;;;;;;12.57;7.23;;;;;;;6.79;100.00;102291.06;5032383;28;20800;-75
2021/10/24 09:43:29;;;;;;;14.40;7.30;;;;;;;6.89;100.00;102287.75;5047563;28;20361;-75
2021/10/24 09:46:13;;;;;;;14.10;6.70;;;;;;;7.01;100.00;102284.47;5035503;28;20232;-75
2021/10/24 09:48:44;;;;;;;10.90;6.30;;;;;;;7.16;100.00;102289.03;5031200;28;20191;-73
2021/10/24 09:51:13;;;;;;;14.57;5.80;;;;;;;7.26;100.00;102275.31;5032828;28;20218;-74
2021/10/24 09:53:41;;;;;;;11.27;4.43;;;;;;;7.27;100.00;102284.00;5036086;28;20196;-75
2021/10/24 09:56:09;;;;;;;9.87;3.57;;;;;;;7.30;100.00;102289.22;5032895;28;21116;-75
2021/10/24 09:58:37;;;;;;;9.67;3.93;;;;;;;7.46;100.00;102282.50;5036110;28;20222;-74
2021/10/24 10:01:05;;;;;;;6.87;3.23;;;;;;;7.54;100.00;102286.06;5031944;28;20220;-74
2021/10/24 10:03:33;;;;;;;6.13;2.93;;;;;;;7.63;100.00;102270.59;5031247;28;20211;-75
2021/10/24 10:06:00;;;;;;;5.93;2.70;;;;;;;7.70;100.00;102279.34;5038029;28;20238;-73
2021/10/24 10:08:29;;;;;;;4.40;2.40;;;;;;;7.74;100.00;102270.78;5032952;28;20587;-73
2021/10/24 10:11:02;;;;;;;4.27;2.97;;;;;;;7.80;100.00;102268.22;5033198;28;20335;-73
2021/10/24 10:13:32;;;;;;;5.87;2.87;;;;;;;7.90;100.00;102266.63;5038087;28;20211;-73
2021/10/24 10:16:06;;;;;;;4.00;2.00;;;;;;;8.00;100.00;102271.03;5045201;28;20198;-73
2021/10/24 10:19:00;;;;;;;4.97;2.57;;;;;;;8.16;100.00;102269.47;5034407;28;20221;-74
2021/10/24 10:21:31;;;;;;;4.13;2.67;;;;;;;8.27;100.00;102264.41;5030046;28;20929;-73
2021/10/24 10:23:59;;;;;;;4.27;2.27;;;;;;;8.38;95.50;102270.56;5032840;28;20258;-74
2021/10/24 10:26:37;;;;;;;5.53;2.37;;;;;;;8.46;94.12;102265.44;5044815;28;20196;-73
2021/10/24 10:29:05;;;;;;;6.00;2.10;;;;;;;8.58;92.14;102260.34;5038767;28;20285;-73
2021/10/24 10:31:32;;;;;;;3.00;2.00;;;;;;;8.69;90.91;102261.34;5037690;28;20232;-73
2021/10/24 10:34:02;;;;;;;6.13;2.40;;;;;;;8.67;88.20;102255.25;5032476;28;20564;-74
2021/10/24 10:36:59;;;;;;;5.90;2.30;;;;;;;8.68;87.90;102256.13;5033046;28;20331;-74
2021/10/24 10:39:44;;;;;;;2.93;1.50;;;;;;;8.75;82.84;102257.03;5034828;28;20200;-73
2021/10/24 10:42:48;;;;;;;6.23;1.50;;;;;;;8.84;82.32;102251.91;5034024;28;20721;-72
2021/10/24 10:45:24;;;;;;;4.70;1.60;;;;;;;8.89;81.17;102256.25;5048269;28;20312;-73
2021/10/24 10:47:52;;;;;;;1.77;1.40;;;;;;;9.02;77.29;102253.75;5042325;28;20668;-73
2021/10/24 10:50:48;;;;;;;3.40;1.70;;;;;;;9.12;77.07;102250.34;5044123;28;20211;-73
2021/10/24 10:53:36;;;;;;;2.37;1.27;;;;;;;9.13;75.83;102252.09;5010904;28;20224;-73
2021/10/24 10:56:22;;;;;;;4.83;1.70;;;;;;;9.16;76.62;102241.69;5056008;28;20241;-73
2021/10/24 10:58:51;;;;;;;2.97;1.60;;;;;;;9.20;74.72;102251.25;5037007;28;20301;-73
2021/10/24 11:01:21;;;;;;;3.37;1.63;;;;;;;9.23;73.86;102234.78;5049250;28;20235;-72
2021/10/24 11:03:49;;;;;;;2.07;1.60;;;;;;;9.40;74.58;102240.06;5040794;28;20200;-72
2021/10/24 11:06:51;;;;;;;8.47;1.60;;;;;;;9.44;72.26;102249.63;5034413;28;20254;-73
2021/10/24 11:09:41;;;;;;;3.03;1.30;;;;;;;9.45;73.56;102241.84;5035510;28;20196;-73
2021/10/24 11:12:14;;;;;;;2.80;1.10;;;;;;;9.52;72.33;102231.47;5040387;28;20287;-73
2021/10/24 11:14:41;;;;;;;5.37;1.63;;;;;;;9.54;71.71;102241.00;5042442;28;20231;-72
2021/10/24 11:17:08;;;;;;;3.03;1.17;;;;;;;9.55;73.03;102232.34;5043183;28;20198;-73
2021/10/24 11:19:49;;;;;;;3.23;1.60;;;;;;;9.55;73.06;102227.13;5041613;28;20208;-73
2021/10/24 11:22:19;;;;;;;4.80;2.00;;;;;;;9.60;71.63;102225.41;5036429;28;20236;-73
2021/10/24 11:24:49;;;;;;;4.20;1.90;;;;;;;9.63;71.61;102219.34;5044150;28;20337;-73
2021/10/24 11:27:18;;;;;;;4.93;1.70;;;;;;;9.61;71.72;102219.31;5039896;28;20235;-72
2021/10/24 11:29:49;;;;;;;3.07;1.43;;;;;;;9.68;71.41;102219.34;5038412;28;20204;-73
2021/10/24 11:32:19;;;;;;;3.03;1.57;;;;;;;9.73;71.99;102210.69;5045019;28;20308;-73
2021/10/24 11:34:45;;;;;;;5.50;1.50;;;;;;;9.72;70.78;102201.13;5036782;28;20208;-73
2021/10/24 11:37:12;;;;;;;5.67;2.33;;;;;;;9.77;69.52;102199.41;5038004;28;20309;-72
2021/10/24 11:39:40;;;;;;;3.63;1.83;;;;;;;9.81;71.85;102195.06;5042775;28;20291;-73
2021/10/24 11:42:10;;;;;;;5.30;1.70;;;;;;;9.88;70.37;102194.22;5038483;28;20286;-73
2021/10/24 11:44:37;;;;;;;3.70;1.40;;;;;;;9.87;69.73;102189.88;5040250;28;20278;-73